Time;durP1;ratioP1;P1;durP2;ratioP2;P2;SDS_P1;SDS_P2;PMS_P1;PMS_P2;Temp;Humidity;BMP_temperature;BMP_pressure;BME280_temperature;BME280_humidity;BME280_pressure;Samples;Min_cycle;Max_cycle;Signal;HPM_P1;HPM_P2
2022/08/28 00:00:11;;;;;;;10.95;9.05;;;;;;;;;;4964174;28;20242;-60
2022/08/28 00:02:37;;;;;;;12.40;9.43;;;;;;;;;;4967744;28;20249;-61
2022/08/28 00:05:04;;;;;;;13.65;8.82;;;;;;;;;;4966225;28;20244;-61
2022/08/28 00:07:31;;;;;;;9.63;8.43;;;;;;;;;;4966971;28;20235;-60
2022/08/28 00:09:57;;;;;;;10.43;8.57;;;;;;;;;;4967311;28;20230;-61
2022/08/28 00:12:25;;;;;;;14.13;8.65;;;;;;;;;;4949673;28;20243;-61
2022/08/28 00:14:51;;;;;;;8.10;7.30;;;;;;;;;;4951759;28;20239;-60
2022/08/28 00:17:18;;;;;;;9.20;6.70;;;;;;;;;;4968103;28;20242;-60
2022/08/28 00:19:44;;;;;;;9.23;7.00;;;;;;;;;;4967934;28;20250;-60
2022/08/28 00:22:11;;;;;;;7.38;5.95;;;;;;;;;;4959972;28;20654;-62
2022/08/28 00:24:37;;;;;;;6.63;6.03;;;;;;;;;;4949012;28;20663;-60
2022/08/28 00:29:49;;;;;;;7.50;6.55;;;;;;;;;;4962273;28;20235;-60
2022/08/28 00:32:16;;;;;;;5.75;5.10;;;;;;;;;;4948551;28;20250;-60
2022/08/28 00:34:42;;;;;;;11.30;6.50;;;;;;;;;;4953324;28;20709;-61
2022/08/28 00:37:08;;;;;;;6.57;5.80;;;;;;;;;;4960653;28;20239;-60
2022/08/28 00:39:35;;;;;;;7.78;5.35;;;;;;;;;;4967737;28;20234;-60
2022/08/28 00:42:01;;;;;;;9.30;5.90;;;;;;;;;;4962982;28;20261;-60
2022/08/28 00:44:28;;;;;;;9.50;5.88;;;;;;;;;;4967550;28;20610;-59
2022/08/28 00:46:57;;;;;;;6.45;5.85;;;;;;;;;;4966768;28;20648;-60
2022/08/28 00:49:26;;;;;;;8.57;5.95;;;;;;;;;;4959888;28;20266;-60
2022/08/28 00:52:07;;;;;;;8.80;5.57;;;;;;;;;;4964691;28;20241;-59
2022/08/28 00:54:35;;;;;;;10.20;5.53;;;;;;;;;;4963866;28;20230;-60
2022/08/28 00:57:02;;;;;;;5.15;4.70;;;;;;;;;;4952149;28;20242;-59
2022/08/28 00:59:29;;;;;;;8.13;6.05;;;;;;;;;;4949205;28;20235;-59
2022/08/28 01:01:57;;;;;;;9.20;5.63;;;;;;;;;;4958240;28;20249;-60
2022/08/28 01:04:25;;;;;;;8.40;4.90;;;;;;;;;;4959404;28;20615;-59
2022/08/28 01:06:53;;;;;;;6.47;5.40;;;;;;;;;;4948280;28;20318;-60
2022/08/28 01:09:20;;;;;;;9.10;6.05;;;;;;;;;;4948399;28;20238;-60
2022/08/28 01:11:47;;;;;;;7.82;5.43;;;;;;;;;;4961308;28;20234;-59
2022/08/28 01:14:16;;;;;;;8.77;6.15;;;;;;;;;;4966755;28;20235;-59
2022/08/28 01:16:42;;;;;;;8.68;6.25;;;;;;;;;;4961866;28;20227;-60
2022/08/28 01:19:13;;;;;;;8.48;6.72;;;;;;;;;;4963392;28;20236;-59
2022/08/28 01:21:44;;;;;;;10.40;7.22;;;;;;;;;;4963607;28;20250;-59
2022/08/28 01:24:14;;;;;;;10.18;7.60;;;;;;;;;;4947483;28;20246;-59
2022/08/28 01:26:41;;;;;;;8.45;6.78;;;;;;;;;;4956413;28;20239;-59
2022/08/28 01:29:08;;;;;;;10.40;7.47;;;;;;;;;;4963041;28;20235;-59
2022/08/28 01:31:35;;;;;;;12.27;7.32;;;;;;;;;;4956031;28;20267;-59
2022/08/28 01:34:02;;;;;;;14.38;9.07;;;;;;;;;;4958512;28;20238;-58
2022/08/28 01:36:29;;;;;;;8.88;7.85;;;;;;;;;;4962332;28;20604;-59
2022/08/28 01:38:56;;;;;;;8.73;7.63;;;;;;;;;;4957020;28;20243;-60
2022/08/28 01:41:24;;;;;;;10.85;9.15;;;;;;;;;;4967157;28;20243;-59
2022/08/28 01:43:52;;;;;;;10.80;9.70;;;;;;;;;;4965705;28;20257;-59
2022/08/28 01:46:18;;;;;;;8.68;7.88;;;;;;;;;;4959974;28;20249;-59
2022/08/28 01:48:45;;;;;;;15.50;9.63;;;;;;;;;;4953623;28;20358;-60
2022/08/28 01:51:12;;;;;;;10.40;9.35;;;;;;;;;;4960144;28;20261;-60
2022/08/28 01:53:38;;;;;;;14.20;8.65;;;;;;;;;;4957561;28;20231;-59
2022/08/28 01:56:07;;;;;;;11.38;9.10;;;;;;;;;;4963579;28;20241;-59
2022/08/28 01:58:35;;;;;;;13.32;9.55;;;;;;;;;;4965231;28;20227;-60
2022/08/28 02:01:02;;;;;;;10.68;9.35;;;;;;;;;;4954157;28;20231;-60
2022/08/28 02:03:28;;;;;;;11.15;9.20;;;;;;;;;;4965713;28;20238;-60
2022/08/28 02:05:54;;;;;;;13.80;10.75;;;;;;;;;;4950305;28;20231;-60
2022/08/28 02:08:21;;;;;;;11.45;9.85;;;;;;;;;;4963964;28;20242;-60
2022/08/28 02:10:47;;;;;;;11.38;8.25;;;;;;;;;;4959456;28;20235;-66
2022/08/28 02:13:14;;;;;;;13.02;9.70;;;;;;;;;;4957642;28;20701;-58
2022/08/28 02:15:42;;;;;;;10.52;9.55;;;;;;;;;;4958496;28;20711;-59
2022/08/28 02:18:08;;;;;;;14.95;11.38;;;;;;;;;;4966118;28;20251;-59
2022/08/28 02:20:35;;;;;;;11.80;9.68;;;;;;;;;;4964191;28;20658;-59
2022/08/28 02:23:01;;;;;;;10.18;9.23;;;;;;;;;;4960559;28;20246;-59
2022/08/28 02:25:28;;;;;;;11.85;10.65;;;;;;;;;;4956651;28;20239;-59
2022/08/28 02:27:54;;;;;;;10.23;9.20;;;;;;;;;;4961840;28;20314;-59
2022/08/28 02:30:21;;;;;;;11.25;9.52;;;;;;;;;;4965926;28;20237;-62
2022/08/28 02:32:49;;;;;;;12.32;9.95;;;;;;;;;;4962137;28;20238;-59
2022/08/28 02:35:16;;;;;;;11.05;9.95;;;;;;;;;;4958307;28;20242;-59
2022/08/28 02:37:44;;;;;;;11.07;8.60;;;;;;;;;;4958414;28;20230;-60
2022/08/28 02:40:13;;;;;;;11.15;8.98;;;;;;;;;;4960392;28;20237;-58
2022/08/28 02:42:39;;;;;;;10.18;9.05;;;;;;;;;;4962436;28;20326;-60
2022/08/28 02:45:07;;;;;;;10.07;7.75;;;;;;;;;;4962228;28;20325;-59
2022/08/28 02:47:34;;;;;;;8.40;7.47;;;;;;;;;;4964177;28;20242;-59
2022/08/28 02:50:02;;;;;;;10.05;7.72;;;;;;;;;;4975851;28;20297;-59
2022/08/28 02:52:28;;;;;;;9.80;7.22;;;;;;;;;;4959176;28;20239;-59
2022/08/28 02:54:55;;;;;;;7.68;6.40;;;;;;;;;;4974327;28;20238;-59
2022/08/28 02:57:21;;;;;;;8.95;6.43;;;;;;;;;;4965367;28;20273;-60
2022/08/28 02:59:47;;;;;;;8.40;6.55;;;;;;;;;;4962625;28;20947;-60
2022/08/28 03:02:13;;;;;;;12.57;6.63;;;;;;;;;;4956326;28;20824;-59
2022/08/28 03:04:40;;;;;;;11.15;6.30;;;;;;;;;;4962450;28;20230;-59
2022/08/28 03:07:08;;;;;;;9.82;6.47;;;;;;;;;;4972247;28;20230;-61
2022/08/28 03:09:35;;;;;;;8.63;6.05;;;;;;;;;;4974213;28;20695;-60
2022/08/28 03:12:01;;;;;;;9.55;6.18;;;;;;;;;;4961957;28;20243;-60
2022/08/28 03:14:28;;;;;;;10.15;5.75;;;;;;;;;;4963504;28;20230;-60
2022/08/28 03:16:54;;;;;;;5.18;4.68;;;;;;;;;;4968661;28;20234;-59
2022/08/28 03:19:21;;;;;;;8.88;5.88;;;;;;;;;;4962760;28;20235;-58
2022/08/28 03:21:47;;;;;;;7.35;5.63;;;;;;;;;;4959198;28;20239;-60
2022/08/28 03:24:14;;;;;;;8.23;4.30;;;;;;;;;;4971535;28;20238;-59
2022/08/28 03:26:40;;;;;;;6.68;4.95;;;;;;;;;;4974599;28;20239;-58
2022/08/28 03:29:06;;;;;;;7.05;4.90;;;;;;;;;;4965069;28;20334;-58
2022/08/28 03:31:34;;;;;;;7.18;5.65;;;;;;;;;;4969876;28;20242;-59
2022/08/28 03:34:01;;;;;;;6.55;4.72;;;;;;;;;;4968414;28;20238;-60
2022/08/28 03:36:28;;;;;;;6.90;4.57;;;;;;;;;;4974816;28;20246;-59
2022/08/28 03:38:55;;;;;;;10.23;5.40;;;;;;;;;;4970854;28;20230;-59
2022/08/28 03:41:24;;;;;;;6.88;4.57;;;;;;;;;;4972275;28;20237;-58
2022/08/28 03:43:50;;;;;;;6.18;4.63;;;;;;;;;;4974077;28;20265;-61
2022/08/28 03:46:18;;;;;;;5.10;4.22;;;;;;;;;;4958102;28;20231;-60
2022/08/28 03:48:44;;;;;;;12.00;4.82;;;;;;;;;;4961917;28;20235;-59
2022/08/28 03:51:12;;;;;;;8.73;4.65;;;;;;;;;;4956445;28;20246;-59
2022/08/28 03:53:38;;;;;;;8.73;4.95;;;;;;;;;;4960079;28;20676;-66
2022/08/28 03:56:06;;;;;;;10.25;4.38;;;;;;;;;;4952340;28;20242;-59
2022/08/28 03:58:34;;;;;;;8.25;5.15;;;;;;;;;;4964928;28;20230;-59
2022/08/28 04:01:00;;;;;;;11.48;4.47;;;;;;;;;;4962519;28;20238;-59
2022/08/28 04:03:27;;;;;;;6.10;4.47;;;;;;;;;;4962812;28;20952;-59
2022/08/28 04:05:53;;;;;;;4.57;4.03;;;;;;;;;;4952281;28;20250;-61
2022/08/28 04:08:21;;;;;;;5.40;4.40;;;;;;;;;;4955473;28;20238;-59
2022/08/28 04:10:47;;;;;;;8.02;4.45;;;;;;;;;;4966301;28;20237;-58
2022/08/28 04:13:14;;;;;;;8.52;4.07;;;;;;;;;;4956129;28;20238;-61
2022/08/28 04:15:42;;;;;;;7.97;4.00;;;;;;;;;;4970468;28;20239;-59
2022/08/28 04:18:09;;;;;;;10.43;4.90;;;;;;;;;;4955522;28;20239;-59
2022/08/28 04:20:35;;;;;;;5.00;4.07;;;;;;;;;;4951747;28;20235;-58
2022/08/28 04:23:02;;;;;;;8.32;3.67;;;;;;;;;;4952923;28;20227;-60
2022/08/28 04:25:29;;;;;;;7.40;3.50;;;;;;;;;;4968747;28;20713;-58
2022/08/28 04:27:56;;;;;;;8.15;4.00;;;;;;;;;;4961266;28;20235;-59
2022/08/28 04:30:22;;;;;;;9.45;4.22;;;;;;;;;;4962024;28;20258;-58
2022/08/28 04:32:50;;;;;;;7.97;4.22;;;;;;;;;;4972932;28;20242;-59
2022/08/28 04:35:17;;;;;;;8.02;4.05;;;;;;;;;;4957461;28;20228;-58
2022/08/28 04:37:43;;;;;;;5.80;3.80;;;;;;;;;;4956262;28;20231;-60
2022/08/28 04:40:11;;;;;;;7.88;3.55;;;;;;;;;;4967878;28;20246;-58
2022/08/28 04:42:38;;;;;;;11.13;3.50;;;;;;;;;;4970110;28;20238;-60
2022/08/28 04:45:05;;;;;;;11.38;4.22;;;;;;;;;;4979024;28;20258;-60
2022/08/28 04:47:34;;;;;;;6.75;3.70;;;;;;;;;;4960076;28;20254;-63
2022/08/28 04:50:02;;;;;;;5.97;3.42;;;;;;;;;;4954239;28;20231;-60
2022/08/28 04:52:28;;;;;;;6.80;3.65;;;;;;;;;;4954042;28;20246;-59
2022/08/28 04:54:55;;;;;;;11.25;3.53;;;;;;;;;;4962471;28;20239;-58
2022/08/28 04:57:21;;;;;;;8.77;3.78;;;;;;;;;;4960796;28;20612;-59
2022/08/28 04:59:48;;;;;;;8.52;3.45;;;;;;;;;;4949588;28;20242;-59
2022/08/28 05:02:14;;;;;;;9.00;4.05;;;;;;;;;;4949509;28;20239;-59
2022/08/28 05:04:40;;;;;;;6.50;3.75;;;;;;;;;;4953878;28;20238;-59
2022/08/28 05:07:08;;;;;;;8.77;3.20;;;;;;;;;;4953855;28;20235;-61
2022/08/28 05:09:34;;;;;;;7.00;3.40;;;;;;;;;;4970413;28;20322;-60
2022/08/28 05:12:01;;;;;;;14.15;4.97;;;;;;;;;;4958246;28;20247;-60
2022/08/28 05:14:27;;;;;;;7.03;3.65;;;;;;;;;;4965262;28;20238;-59
2022/08/28 05:16:55;;;;;;;5.88;3.22;;;;;;;;;;4967019;28;20243;-60
2022/08/28 05:19:22;;;;;;;7.32;3.35;;;;;;;;;;4959972;28;20889;-59
2022/08/28 05:21:49;;;;;;;6.82;3.42;;;;;;;;;;4957571;28;20329;-59
2022/08/28 05:24:17;;;;;;;6.85;2.92;;;;;;;;;;4961532;28;20245;-59
2022/08/28 05:26:44;;;;;;;10.07;4.30;;;;;;;;;;4960939;28;20705;-61
2022/08/28 05:29:11;;;;;;;6.72;3.30;;;;;;;;;;4956408;28;20234;-60
2022/08/28 05:31:38;;;;;;;8.98;3.03;;;;;;;;;;4967993;28;20238;-62
2022/08/28 05:34:05;;;;;;;9.20;3.70;;;;;;;;;;4963550;28;20239;-60
2022/08/28 05:36:32;;;;;;;10.52;3.78;;;;;;;;;;4960045;28;20235;-59
2022/08/28 05:38:58;;;;;;;7.25;3.22;;;;;;;;;;4954795;28;20420;-58
2022/08/28 05:41:29;;;;;;;8.85;3.72;;;;;;;;;;4955814;28;20235;-60
2022/08/28 05:43:57;;;;;;;8.48;4.13;;;;;;;;;;4948050;28;20271;-59
2022/08/28 05:46:23;;;;;;;5.13;3.40;;;;;;;;;;4948643;28;20239;-59
2022/08/28 05:48:49;;;;;;;5.70;3.83;;;;;;;;;;4965992;28;20231;-59
2022/08/28 05:51:17;;;;;;;6.82;4.35;;;;;;;;;;4966628;28;20238;-58
2022/08/28 05:53:44;;;;;;;12.48;4.43;;;;;;;;;;4951313;28;20235;-60
2022/08/28 05:56:11;;;;;;;8.88;4.32;;;;;;;;;;4947376;28;20243;-59
2022/08/28 05:58:39;;;;;;;8.25;3.75;;;;;;;;;;4948252;28;20249;-60
2022/08/28 06:01:07;;;;;;;8.43;4.25;;;;;;;;;;4962837;28;20242;-59
2022/08/28 06:03:33;;;;;;;10.10;3.85;;;;;;;;;;4959533;28;20294;-60
2022/08/28 06:06:00;;;;;;;6.82;3.63;;;;;;;;;;4960186;28;20242;-61
2022/08/28 06:08:26;;;;;;;9.10;4.20;;;;;;;;;;4954748;28;20235;-59
2022/08/28 06:10:53;;;;;;;6.45;4.40;;;;;;;;;;4953415;28;20235;-59
2022/08/28 06:13:21;;;;;;;8.13;4.35;;;;;;;;;;4949280;28;20241;-58
2022/08/28 06:15:49;;;;;;;13.27;4.40;;;;;;;;;;4950216;28;20238;-58
2022/08/28 06:18:16;;;;;;;11.30;4.78;;;;;;;;;;4959249;28;20347;-57
2022/08/28 06:20:43;;;;;;;8.25;4.95;;;;;;;;;;4960791;28;20241;-58
2022/08/28 06:23:11;;;;;;;7.10;3.95;;;;;;;;;;4962340;28;20238;-58
2022/08/28 06:25:38;;;;;;;8.40;4.75;;;;;;;;;;4964271;28;20234;-60
2022/08/28 06:28:05;;;;;;;8.85;3.85;;;;;;;;;;4968361;28;20231;-58
2022/08/28 06:30:31;;;;;;;8.20;4.97;;;;;;;;;;4968386;28;20245;-59
2022/08/28 06:32:59;;;;;;;8.30;4.18;;;;;;;;;;4955273;28;20250;-59
2022/08/28 06:35:26;;;;;;;10.05;5.90;;;;;;;;;;4955327;28;20243;-59
2022/08/28 06:37:52;;;;;;;9.75;5.35;;;;;;;;;;4946900;28;20235;-59
2022/08/28 06:40:18;;;;;;;5.18;4.22;;;;;;;;;;4948282;28;20327;-59
2022/08/28 06:42:45;;;;;;;7.32;4.35;;;;;;;;;;4964016;28;20317;-60
2022/08/28 06:45:12;;;;;;;6.88;5.05;;;;;;;;;;4962382;28;20243;-59
2022/08/28 06:47:38;;;;;;;9.23;5.88;;;;;;;;;;4955503;28;20233;-60
2022/08/28 06:50:07;;;;;;;10.25;4.70;;;;;;;;;;4955531;28;20242;-58
2022/08/28 06:52:33;;;;;;;7.43;4.45;;;;;;;;;;4959906;28;20235;-59
2022/08/28 06:54:59;;;;;;;11.77;5.72;;;;;;;;;;4959926;28;20238;-59
2022/08/28 06:57:26;;;;;;;7.15;4.30;;;;;;;;;;4958277;28;20241;-58
2022/08/28 06:59:55;;;;;;;6.63;4.55;;;;;;;;;;4957328;28;20245;-59
2022/08/28 07:02:21;;;;;;;9.18;5.25;;;;;;;;;;4965318;28;20253;-59
2022/08/28 07:04:50;;;;;;;11.07;4.15;;;;;;;;;;4961167;28;20239;-58
2022/08/28 07:07:18;;;;;;;10.90;4.60;;;;;;;;;;4960845;28;20234;-59
2022/08/28 07:09:44;;;;;;;11.63;5.65;;;;;;;;;;4956730;28;20227;-58
2022/08/28 07:12:13;;;;;;;10.73;4.57;;;;;;;;;;4959123;28;20244;-58
2022/08/28 07:14:39;;;;;;;9.77;4.75;;;;;;;;;;4958471;28;20239;-60
2022/08/28 07:17:06;;;;;;;15.30;5.10;;;;;;;;;;4961679;28;20238;-59
2022/08/28 07:19:33;;;;;;;6.40;3.67;;;;;;;;;;4956520;28;20732;-60
2022/08/28 07:21:59;;;;;;;7.97;4.22;;;;;;;;;;4966489;28;20241;-58
2022/08/28 07:24:28;;;;;;;10.13;4.65;;;;;;;;;;4957519;28;20240;-59
2022/08/28 07:26:54;;;;;;;10.20;5.20;;;;;;;;;;4960111;28;20238;-59
2022/08/28 07:29:21;;;;;;;7.35;5.18;;;;;;;;;;4956937;28;20239;-59
2022/08/28 07:31:48;;;;;;;12.18;5.25;;;;;;;;;;4957675;28;20247;-58
2022/08/28 07:34:15;;;;;;;9.85;3.90;;;;;;;;;;4960465;28;20259;-58
2022/08/28 07:36:42;;;;;;;12.38;5.80;;;;;;;;;;4952488;28;20242;-58
2022/08/28 07:39:09;;;;;;;11.10;4.63;;;;;;;;;;4957195;28;20235;-59
2022/08/28 07:41:39;;;;;;;10.32;4.60;;;;;;;;;;4958766;28;20898;-59
2022/08/28 07:46:52;;;;;;;9.23;3.83;;;;;;;;;;4962026;28;20632;-59
2022/08/28 07:49:18;;;;;;;6.32;4.30;;;;;;;;;;4955301;28;20243;-59
2022/08/28 07:51:45;;;;;;;10.55;5.28;;;;;;;;;;4961631;28;20235;-59
2022/08/28 07:54:11;;;;;;;7.72;4.80;;;;;;;;;;4962391;28;20245;-60
2022/08/28 07:56:40;;;;;;;11.77;5.20;;;;;;;;;;4963414;28;20238;-59
2022/08/28 07:59:07;;;;;;;6.63;4.75;;;;;;;;;;4965110;28;20649;-58
2022/08/28 08:01:37;;;;;;;12.20;5.10;;;;;;;;;;4955367;28;20653;-58
2022/08/28 08:04:04;;;;;;;6.18;3.85;;;;;;;;;;4964598;28;20310;-59
2022/08/28 08:06:31;;;;;;;9.95;4.53;;;;;;;;;;4960945;28;20265;-59
2022/08/28 08:08:57;;;;;;;7.28;4.15;;;;;;;;;;4968789;28;20235;-58
2022/08/28 08:11:23;;;;;;;8.35;4.43;;;;;;;;;;4959460;28;20254;-58
2022/08/28 08:13:52;;;;;;;7.93;3.83;;;;;;;;;;4949666;28;20235;-58
2022/08/28 08:16:19;;;;;;;4.80;3.90;;;;;;;;;;4962284;28;20247;-59
2022/08/28 08:18:47;;;;;;;10.40;4.85;;;;;;;;;;4961655;28;20254;-58
2022/08/28 08:21:14;;;;;;;7.78;5.03;;;;;;;;;;4963182;28;20247;-59
2022/08/28 08:23:41;;;;;;;9.63;5.05;;;;;;;;;;4971862;28;20245;-59
2022/08/28 08:26:09;;;;;;;7.22;4.63;;;;;;;;;;4955033;28;20231;-57
2022/08/28 08:28:36;;;;;;;13.30;5.15;;;;;;;;;;4957703;28;20317;-59
2022/08/28 08:31:05;;;;;;;12.38;4.78;;;;;;;;;;4956293;28;20239;-59
2022/08/28 08:33:32;;;;;;;5.78;4.30;;;;;;;;;;4948933;28;20235;-58
2022/08/28 08:35:59;;;;;;;6.65;4.30;;;;;;;;;;4948446;28;21813;-59
2022/08/28 08:38:25;;;;;;;10.52;5.15;;;;;;;;;;4955905;28;20242;-59
2022/08/28 08:40:51;;;;;;;11.75;5.18;;;;;;;;;;4947110;28;20251;-60
2022/08/28 08:43:20;;;;;;;10.02;5.03;;;;;;;;;;4962521;28;20246;-57
2022/08/28 08:45:47;;;;;;;10.65;5.68;;;;;;;;;;4965713;28;20329;-59
2022/08/28 08:48:20;;;;;;;11.75;5.40;;;;;;;;;;4962909;28;20243;-58
2022/08/28 08:50:47;;;;;;;12.02;6.20;;;;;;;;;;4956472;28;20226;-58
2022/08/28 08:53:19;;;;;;;14.93;5.57;;;;;;;;;;4958146;28;20705;-57
2022/08/28 08:55:47;;;;;;;12.32;5.63;;;;;;;;;;4964461;28;20238;-58
2022/08/28 08:58:25;;;;;;;7.38;5.47;;;;;;;;;;4962397;28;20246;-60
2022/08/28 09:00:55;;;;;;;13.20;6.57;;;;;;;;;;4959133;28;20240;-60
2022/08/28 09:03:25;;;;;;;9.27;5.90;;;;;;;;;;4961222;28;20445;-59
2022/08/28 09:05:52;;;;;;;9.02;5.22;;;;;;;;;;4954591;28;20740;-59
2022/08/28 09:08:25;;;;;;;8.43;5.50;;;;;;;;;;4952616;28;20273;-59
2022/08/28 09:10:54;;;;;;;7.50;4.60;;;;;;;;;;4959375;28;20238;-59
2022/08/28 09:13:23;;;;;;;9.95;5.72;;;;;;;;;;4962713;28;20238;-57
2022/08/28 09:15:51;;;;;;;17.60;5.40;;;;;;;;;;4961859;28;20231;-58
2022/08/28 09:18:19;;;;;;;7.18;5.65;;;;;;;;;;4955227;28;20282;-59
2022/08/28 09:20:49;;;;;;;9.07;5.43;;;;;;;;;;4964748;28;20234;-59
2022/08/28 09:23:15;;;;;;;6.93;5.85;;;;;;;;;;4960738;28;20313;-58
2022/08/28 09:25:50;;;;;;;7.38;5.20;;;;;;;;;;4956698;28;20648;-59
2022/08/28 09:28:18;;;;;;;9.75;5.45;;;;;;;;;;4961342;28;20248;-59
2022/08/28 09:30:51;;;;;;;6.47;5.32;;;;;;;;;;4963089;28;20238;-58
2022/08/28 09:33:27;;;;;;;11.25;5.00;;;;;;;;;;4964178;28;20249;-58
2022/08/28 09:35:55;;;;;;;7.93;5.43;;;;;;;;;;4958411;28;20241;-59
2022/08/28 09:38:22;;;;;;;12.75;4.32;;;;;;;;;;4956163;28;20239;-60
2022/08/28 09:43:32;;;;;;;9.73;5.32;;;;;;;;;;4961157;28;20246;-58
2022/08/28 09:46:00;;;;;;;8.35;5.45;;;;;;;;;;4959221;28;20246;-58
2022/08/28 09:48:31;;;;;;;11.27;5.70;;;;;;;;;;4973438;28;20242;-61
2022/08/28 09:51:02;;;;;;;8.00;5.30;;;;;;;;;;4967813;28;20234;-58
2022/08/28 09:53:29;;;;;;;13.10;5.88;;;;;;;;;;4967304;28;20264;-58
2022/08/28 09:55:59;;;;;;;9.50;5.50;;;;;;;;;;4970968;28;20242;-58
2022/08/28 09:58:29;;;;;;;10.55;5.57;;;;;;;;;;4958821;28;20238;-58
2022/08/28 10:00:58;;;;;;;10.27;5.43;;;;;;;;;;4966933;28;20246;-58
2022/08/28 10:03:28;;;;;;;7.47;5.63;;;;;;;;;;4969054;28;20246;-58
2022/08/28 10:05:59;;;;;;;6.85;4.47;;;;;;;;;;4967032;28;20649;-59
2022/08/28 10:08:33;;;;;;;9.98;4.90;;;;;;;;;;4955011;28;20486;-59
2022/08/28 10:11:02;;;;;;;5.47;4.22;;;;;;;;;;4962870;28;20246;-58
2022/08/28 10:13:29;;;;;;;9.13;5.80;;;;;;;;;;4959422;28;20242;-58
2022/08/28 10:16:02;;;;;;;8.45;5.78;;;;;;;;;;4960599;28;20227;-59
2022/08/28 10:18:33;;;;;;;6.78;6.03;;;;;;;;;;4955618;28;20250;-59
2022/08/28 10:21:03;;;;;;;6.78;6.07;;;;;;;;;;4958503;28;20241;-59
2022/08/28 10:23:37;;;;;;;7.00;5.38;;;;;;;;;;4961075;28;20754;-59
2022/08/28 10:26:14;;;;;;;7.90;5.97;;;;;;;;;;4958460;28;20234;-59
2022/08/28 10:28:45;;;;;;;7.40;6.10;;;;;;;;;;4956014;28;20244;-59
2022/08/28 10:31:16;;;;;;;7.13;6.43;;;;;;;;;;4958396;28;20258;-59
2022/08/28 10:33:51;;;;;;;10.98;6.28;;;;;;;;;;4960281;28;20238;-57
2022/08/28 10:36:19;;;;;;;7.88;5.93;;;;;;;;;;4951047;28;20777;-59
2022/08/28 10:38:51;;;;;;;7.13;6.00;;;;;;;;;;4960907;28;20239;-60
2022/08/28 10:41:19;;;;;;;5.70;4.88;;;;;;;;;;4964457;28;20453;-58
2022/08/28 10:43:47;;;;;;;12.48;5.32;;;;;;;;;;4953530;28;20235;-58
2022/08/28 10:46:15;;;;;;;9.25;6.00;;;;;;;;;;4953314;28;20241;-59
2022/08/28 10:48:45;;;;;;;5.63;4.93;;;;;;;;;;4954636;28;20763;-58
2022/08/28 10:51:14;;;;;;;8.93;6.38;;;;;;;;;;4963032;28;20721;-58
2022/08/28 10:53:44;;;;;;;11.73;6.22;;;;;;;;;;4963309;28;20321;-58
2022/08/28 10:56:16;;;;;;;10.20;5.85;;;;;;;;;;4963336;28;20330;-58
2022/08/28 10:58:43;;;;;;;8.77;5.18;;;;;;;;;;4959108;28;20760;-58
2022/08/28 11:01:13;;;;;;;9.30;5.72;;;;;;;;;;4959426;28;20721;-59
2022/08/28 11:03:41;;;;;;;10.73;5.50;;;;;;;;;;4961151;28;20246;-58
2022/08/28 11:06:10;;;;;;;9.63;5.82;;;;;;;;;;4962501;28;20249;-57
2022/08/28 11:08:38;;;;;;;8.55;5.50;;;;;;;;;;4960258;28;20243;-58
2022/08/28 11:11:05;;;;;;;9.48;5.57;;;;;;;;;;4966841;28;20258;-59
2022/08/28 11:13:43;;;;;;;6.93;5.43;;;;;;;;;;4961107;28;20306;-59
2022/08/28 11:16:17;;;;;;;8.60;5.22;;;;;;;;;;4957140;28;20230;-58
2022/08/28 11:18:51;;;;;;;8.10;6.45;;;;;;;;;;4966096;28;20262;-58
2022/08/28 11:21:21;;;;;;;10.60;7.13;;;;;;;;;;4961120;28;20344;-59
2022/08/28 11:24:03;;;;;;;9.93;7.15;;;;;;;;;;4964302;28;20317;-58
2022/08/28 11:30:00;;;;;;;9.68;5.63;;;;;;;;;;4929902;28;20226;-58
2022/08/28 11:32:35;;;;;;;7.10;5.40;;;;;;;;;;4963780;28;20254;-58
2022/08/28 11:35:07;;;;;;;11.20;6.65;;;;;;;;;;4962425;28;20270;-58
2022/08/28 11:37:37;;;;;;;8.25;6.50;;;;;;;;;;4965309;28;20244;-59
2022/08/28 11:40:15;;;;;;;8.25;6.18;;;;;;;;;;4966087;28;20594;-59
2022/08/28 11:42:47;;;;;;;9.57;6.55;;;;;;;;;;4963766;28;20231;-59
2022/08/28 11:45:19;;;;;;;8.82;5.90;;;;;;;;;;4963149;28;20222;-56
2022/08/28 11:47:51;;;;;;;9.45;6.43;;;;;;;;;;4962846;28;20249;-59
2022/08/28 11:50:24;;;;;;;7.80;6.15;;;;;;;;;;4963248;28;20247;-56
2022/08/28 11:53:10;;;;;;;7.85;5.75;;;;;;;;;;4954571;28;20724;-58
2022/08/28 11:55:46;;;;;;;9.52;6.15;;;;;;;;;;4953787;28;20237;-59
2022/08/28 11:58:15;;;;;;;10.23;7.15;;;;;;;;;;4957502;28;20250;-59
2022/08/28 12:00:51;;;;;;;19.90;7.55;;;;;;;;;;4957981;28;20241;-58
2022/08/28 12:03:25;;;;;;;9.23;6.55;;;;;;;;;;4962072;28;20241;-58
2022/08/28 12:05:53;;;;;;;10.10;7.13;;;;;;;;;;4963273;28;20265;-57
2022/08/28 12:08:38;;;;;;;7.38;6.68;;;;;;;;;;4955092;28;20239;-58
2022/08/28 12:11:05;;;;;;;14.23;7.25;;;;;;;;;;4959155;28;20230;-58
2022/08/28 12:13:46;;;;;;;11.43;8.13;;;;;;;;;;4954970;28;20715;-58
2022/08/28 12:16:14;;;;;;;12.77;7.60;;;;;;;;;;4959979;28;20242;-57
2022/08/28 12:19:00;;;;;;;8.63;6.00;;;;;;;;;;4958428;28;20242;-58
2022/08/28 12:21:27;;;;;;;10.65;5.75;;;;;;;;;;4959590;28;20313;-58
2022/08/28 12:23:58;;;;;;;12.20;6.80;;;;;;;;;;4963689;28;20243;-58
2022/08/28 12:26:26;;;;;;;13.50;7.70;;;;;;;;;;4957190;28;20235;-58
2022/08/28 12:28:55;;;;;;;8.65;7.28;;;;;;;;;;4959871;28;20235;-57
2022/08/28 12:34:12;;;;;;;11.55;7.90;;;;;;;;;;4950187;28;20231;-58
2022/08/28 12:36:39;;;;;;;11.07;6.85;;;;;;;;;;4957501;28;20238;-58
2022/08/28 12:39:05;;;;;;;9.75;6.97;;;;;;;;;;4952471;28;20250;-59
2022/08/28 12:41:32;;;;;;;7.13;6.22;;;;;;;;;;4957079;28;20249;-59
2022/08/28 12:44:00;;;;;;;7.55;6.25;;;;;;;;;;4956962;28;20677;-58
2022/08/28 12:46:29;;;;;;;14.73;7.57;;;;;;;;;;4954625;28;20365;-57
2022/08/28 12:48:58;;;;;;;9.73;6.60;;;;;;;;;;4960024;28;20238;-58
2022/08/28 12:51:25;;;;;;;8.73;6.43;;;;;;;;;;4955721;28;20305;-59
2022/08/28 12:53:54;;;;;;;10.00;5.97;;;;;;;;;;4954977;28;20844;-58
2022/08/28 12:56:21;;;;;;;7.40;6.05;;;;;;;;;;4963237;28;20239;-59
2022/08/28 12:58:47;;;;;;;9.55;5.32;;;;;;;;;;4952870;28;20239;-57
2022/08/28 13:01:15;;;;;;;7.60;5.85;;;;;;;;;;4957976;28;20249;-58
2022/08/28 13:03:47;;;;;;;8.90;6.43;;;;;;;;;;4958892;28;20258;-57
2022/08/28 13:06:13;;;;;;;7.18;5.75;;;;;;;;;;4954696;28;20611;-58
2022/08/28 13:08:40;;;;;;;7.53;5.60;;;;;;;;;;4965506;28;20238;-58
2022/08/28 13:11:06;;;;;;;9.93;7.20;;;;;;;;;;4959258;28;20242;-57
2022/08/28 13:13:35;;;;;;;6.53;5.82;;;;;;;;;;4961980;28;20249;-57
2022/08/28 13:16:02;;;;;;;7.78;5.20;;;;;;;;;;4954246;28;20230;-58
2022/08/28 13:18:50;;;;;;;8.20;5.55;;;;;;;;;;4950369;28;20425;-59
2022/08/28 13:21:26;;;;;;;7.70;5.00;;;;;;;;;;4945303;28;20243;-58
2022/08/28 13:23:54;;;;;;;10.18;6.18;;;;;;;;;;4957891;28;20243;-58
2022/08/28 13:26:25;;;;;;;8.13;5.05;;;;;;;;;;4952371;28;20239;-57
2022/08/28 13:28:52;;;;;;;6.03;4.80;;;;;;;;;;4956159;28;20238;-60
2022/08/28 13:31:22;;;;;;;6.93;5.32;;;;;;;;;;4961966;28;20246;-57
2022/08/28 13:34:01;;;;;;;7.18;5.55;;;;;;;;;;4955887;28;20259;-58
2022/08/28 13:36:37;;;;;;;6.45;5.03;;;;;;;;;;4954519;28;20616;-58
2022/08/28 13:39:03;;;;;;;9.10;5.18;;;;;;;;;;4949299;28;20241;-58
2022/08/28 13:41:29;;;;;;;7.10;5.65;;;;;;;;;;4956439;28;20243;-58
2022/08/28 13:43:56;;;;;;;6.00;4.78;;;;;;;;;;4959496;28;20237;-58
2022/08/28 13:46:22;;;;;;;7.10;4.68;;;;;;;;;;4952835;28;20263;-57
2022/08/28 13:48:49;;;;;;;8.63;5.38;;;;;;;;;;4954103;28;20238;-57
2022/08/28 13:51:15;;;;;;;5.70;4.82;;;;;;;;;;4960117;28;20631;-59
2022/08/28 13:53:43;;;;;;;7.00;4.35;;;;;;;;;;4963237;28;20230;-58
2022/08/28 13:56:09;;;;;;;7.53;5.20;;;;;;;;;;4954466;28;20235;-58
2022/08/28 13:58:36;;;;;;;6.43;5.50;;;;;;;;;;4954411;28;20234;-58
2022/08/28 14:01:02;;;;;;;6.28;4.40;;;;;;;;;;4954869;28;20321;-57
2022/08/28 14:03:37;;;;;;;5.93;4.50;;;;;;;;;;4961412;28;20243;-58
2022/08/28 14:06:04;;;;;;;6.10;4.65;;;;;;;;;;4953160;28;20239;-57
2022/08/28 14:08:31;;;;;;;5.50;4.18;;;;;;;;;;4953819;28;20242;-58
2022/08/28 14:10:58;;;;;;;4.90;4.13;;;;;;;;;;4952301;28;20234;-58
2022/08/28 14:13:26;;;;;;;6.20;3.92;;;;;;;;;;4958220;28;20601;-57
2022/08/28 14:15:52;;;;;;;9.32;4.85;;;;;;;;;;4951429;28;20292;-58
2022/08/28 14:18:19;;;;;;;6.18;4.18;;;;;;;;;;4955893;28;20235;-57
2022/08/28 14:20:46;;;;;;;4.63;4.20;;;;;;;;;;4955720;28;20241;-58
2022/08/28 14:23:12;;;;;;;6.82;4.68;;;;;;;;;;4956071;28;20261;-58
2022/08/28 14:25:41;;;;;;;5.68;4.47;;;;;;;;;;4966040;28;20249;-59
2022/08/28 14:28:08;;;;;;;8.10;4.72;;;;;;;;;;4964629;28;20690;-57
2022/08/28 14:30:35;;;;;;;7.68;4.43;;;;;;;;;;4966685;28;20229;-58
2022/08/28 14:33:01;;;;;;;6.05;4.05;;;;;;;;;;4963092;28;20245;-57
2022/08/28 14:35:27;;;;;;;8.50;3.72;;;;;;;;;;4961868;28;20234;-58
2022/08/28 14:37:54;;;;;;;11.18;4.25;;;;;;;;;;4962234;28;20776;-57
2022/08/28 14:40:23;;;;;;;4.78;4.35;;;;;;;;;;4951363;28;20226;-56
2022/08/28 14:42:50;;;;;;;6.75;4.85;;;;;;;;;;4974009;28;20239;-57
2022/08/28 14:45:18;;;;;;;5.82;3.92;;;;;;;;;;4968446;28;20241;-59
2022/08/28 14:47:44;;;;;;;8.20;3.85;;;;;;;;;;4967961;28;20238;-57
2022/08/28 14:50:11;;;;;;;5.78;4.18;;;;;;;;;;4970716;28;20323;-57
2022/08/28 14:52:37;;;;;;;4.72;4.22;;;;;;;;;;4962552;28;20230;-59
2022/08/28 14:55:04;;;;;;;8.85;4.45;;;;;;;;;;4957436;28;20775;-57
2022/08/28 14:57:31;;;;;;;4.32;3.75;;;;;;;;;;4966092;28;22211;-58